Time;durP1;ratioP1;P1;durP2;ratioP2;P2;SDS_P1;SDS_P2;PMS_P1;PMS_P2;Temp;Humidity;BMP_temperature;BMP_pressure;BME280_temperature;BME280_humidity;BME280_pressure;Samples;Min_cycle;Max_cycle;Signal;HPM_P1;HPM_P2
2024/01/24 00:01:23;;;;;;;7.10;3.80;;;;;;;7.48;57.82;102351.41;109377;1254;60109;-53
2024/01/24 00:03:51;;;;;;;6.00;3.50;;;;;;;7.49;57.71;102347.77;109069;1253;73983;-52
2024/01/24 00:06:19;;;;;;;8.70;3.50;;;;;;;7.46;57.67;102348.74;109338;1252;72864;-53
2024/01/24 00:08:48;;;;;;;6.80;3.30;;;;;;;7.48;57.73;102345.13;109334;1254;72767;-53
2024/01/24 00:11:15;;;;;;;6.10;3.30;;;;;;;7.51;57.54;102338.74;109354;1252;58230;-53
2024/01/24 00:13:45;;;;;;;5.70;4.00;;;;;;;7.49;57.61;102339.04;109447;1253;60104;-53
2024/01/24 00:16:13;;;;;;;8.20;3.90;;;;;;;7.47;57.55;102336.90;109076;1254;73961;-53
2024/01/24 00:18:41;;;;;;;10.70;4.00;;;;;;;7.47;57.52;102340.72;109351;1254;72874;-53
2024/01/24 00:21:10;;;;;;;7.70;3.40;;;;;;;7.46;57.63;102338.78;109316;1252;72429;-53
2024/01/24 00:23:38;;;;;;;8.10;3.60;;;;;;;7.47;57.50;102338.10;109454;1253;58299;-53
2024/01/24 00:26:08;;;;;;;7.10;3.90;;;;;;;7.46;57.48;102337.20;109339;1254;59968;-53
2024/01/24 00:28:35;;;;;;;5.20;3.30;;;;;;;7.44;57.53;102331.71;109308;1253;72644;-52
2024/01/24 00:31:03;;;;;;;6.70;3.60;;;;;;;7.46;57.59;102327.08;109151;1253;71466;-53
2024/01/24 00:33:31;;;;;;;5.70;3.90;;;;;;;7.50;57.47;102325.61;109374;1253;72719;-54
2024/01/24 00:35:58;;;;;;;6.00;3.60;;;;;;;7.53;57.55;102318.40;109157;1253;59314;-54
2024/01/24 00:38:27;;;;;;;6.60;3.70;;;;;;;7.56;57.34;102314.99;109343;1252;60937;-54
2024/01/24 00:40:54;;;;;;;6.40;3.50;;;;;;;7.57;57.37;102317.98;109365;1253;73929;-54
2024/01/24 00:43:23;;;;;;;6.90;3.70;;;;;;;7.59;57.39;102320.66;109403;1254;72842;-53
2024/01/24 00:45:51;;;;;;;6.40;3.60;;;;;;;7.59;57.22;102328.88;109358;1254;72725;-53
2024/01/24 00:48:19;;;;;;;7.30;3.90;;;;;;;7.57;57.23;102325.85;109105;1254;59356;-53
2024/01/24 00:50:46;;;;;;;5.20;4.00;;;;;;;7.55;57.12;102320.89;109310;1254;58829;-53
2024/01/24 00:53:15;;;;;;;7.90;3.60;;;;;;;7.54;57.17;102318.44;109289;1254;71695;-53
2024/01/24 00:55:43;;;;;;;5.10;3.50;;;;;;;7.55;57.08;102316.89;109190;1254;72135;-54
2024/01/24 00:58:13;;;;;;;8.50;4.00;;;;;;;7.54;57.20;102308.31;109244;1254;72785;-53
2024/01/24 01:00:41;;;;;;;8.80;4.00;;;;;;;7.56;57.24;102311.52;109078;1253;59445;-53
2024/01/24 01:03:09;;;;;;;5.90;3.60;;;;;;;7.61;57.19;102313.20;109330;1253;58824;-54
2024/01/24 01:05:37;;;;;;;6.40;3.80;;;;;;;7.59;57.00;102310.55;109265;1254;72596;-54
2024/01/24 01:08:05;;;;;;;6.20;3.70;;;;;;;7.57;57.17;102312.57;109276;1257;71718;-53
2024/01/24 01:10:34;;;;;;;7.40;3.60;;;;;;;7.59;57.13;102310.34;109389;1254;72722;-53
2024/01/24 01:13:03;;;;;;;7.50;4.30;;;;;;;7.63;57.22;102305.93;109036;1253;58223;-53
2024/01/24 01:15:30;;;;;;;7.60;4.20;;;;;;;7.68;57.13;102305.73;109200;1255;58784;-54
2024/01/24 01:17:58;;;;;;;4.50;3.40;;;;;;;7.71;57.11;102306.52;109189;1252;74064;-53
2024/01/24 01:20:26;;;;;;;7.00;4.10;;;;;;;7.76;57.13;102295.98;109387;1253;73097;-54
2024/01/24 01:22:53;;;;;;;6.80;4.20;;;;;;;7.80;56.97;102296.45;109401;1253;72642;-54
2024/01/24 01:25:21;;;;;;;6.60;3.40;;;;;;;7.79;56.90;102300.97;109357;1252;59314;-53
2024/01/24 01:27:49;;;;;;;6.10;3.80;;;;;;;7.78;56.95;102295.70;109380;1253;58799;-51
2024/01/24 01:30:17;;;;;;;8.10;4.10;;;;;;;7.75;57.02;102293.02;109382;1253;72637;-52
2024/01/24 01:32:45;;;;;;;8.90;3.80;;;;;;;7.79;57.07;102287.35;109430;1252;72855;-52
2024/01/24 01:35:13;;;;;;;7.90;4.50;;;;;;;7.83;56.95;102286.41;109346;1253;72726;-52
2024/01/24 01:37:41;;;;;;;6.80;4.10;;;;;;;7.84;56.96;102286.47;109185;1253;58661;-52
2024/01/24 01:40:09;;;;;;;7.20;4.50;;;;;;;7.87;56.88;102285.30;109424;1253;60242;-51
2024/01/24 01:42:43;;;;;;;9.10;4.00;;;;;;;7.88;56.82;102280.64;109445;1254;73890;-53
2024/01/24 01:45:11;;;;;;;10.00;4.30;;;;;;;7.85;56.88;102285.59;109256;1252;72714;-53
2024/01/24 01:47:38;;;;;;;5.50;4.10;;;;;;;7.81;56.95;102272.36;109010;1254;72741;-52
2024/01/24 01:50:09;;;;;;;6.40;3.90;;;;;;;7.80;56.99;102270.61;109245;1253;58158;-53
2024/01/24 01:52:40;;;;;;;11.50;4.60;;;;;;;7.76;57.01;102269.80;109117;1254;259025;-52
2024/01/24 01:55:08;;;;;;;7.40;4.90;;;;;;;7.71;56.98;102265.84;109389;1254;73933;-52
2024/01/24 01:57:38;;;;;;;9.00;4.50;;;;;;;7.69;57.05;102268.71;109258;1254;72846;-53
2024/01/24 02:00:08;;;;;;;7.70;4.50;;;;;;;7.68;57.19;102271.14;109019;1253;72699;-52
2024/01/24 02:02:36;;;;;;;10.70;5.20;;;;;;;7.65;57.14;102268.28;109123;1254;59347;-52
2024/01/24 02:05:06;;;;;;;7.10;5.00;;;;;;;7.61;57.49;102268.16;109292;1254;60088;-51
2024/01/24 02:07:34;;;;;;;8.40;4.40;;;;;;;7.64;57.54;102269.11;109117;1254;74149;-51
2024/01/24 02:10:02;;;;;;;6.70;4.40;;;;;;;7.66;57.52;102263.75;109248;1254;72894;-51
2024/01/24 02:12:30;;;;;;;7.70;4.70;;;;;;;7.69;57.49;102262.27;109281;1254;71453;-51
2024/01/24 02:14:58;;;;;;;6.00;4.20;;;;;;;7.72;57.46;102266.53;109252;1254;58610;-51
2024/01/24 02:17:26;;;;;;;5.50;4.10;;;;;;;7.73;57.49;102267.62;109312;1253;60116;-52
2024/01/24 02:19:53;;;;;;;7.10;4.30;;;;;;;7.75;57.47;102270.13;109312;1252;74382;-51
2024/01/24 02:22:21;;;;;;;8.90;4.50;;;;;;;7.79;57.41;102273.39;109378;1254;73640;-51
2024/01/24 02:24:49;;;;;;;8.50;4.90;;;;;;;7.81;57.35;102275.36;109352;1253;71735;-51
2024/01/24 02:27:17;;;;;;;9.20;4.40;;;;;;;7.84;57.36;102279.29;109319;1253;58115;-53
2024/01/24 02:29:45;;;;;;;14.20;4.80;;;;;;;7.86;57.33;102283.70;109332;1253;60198;-52
2024/01/24 02:32:13;;;;;;;10.00;4.20;;;;;;;7.87;57.36;102281.81;109399;1253;73883;-52
2024/01/24 02:34:41;;;;;;;6.90;4.20;;;;;;;7.89;57.27;102279.77;109074;1252;73633;-51
2024/01/24 02:37:09;;;;;;;7.80;4.60;;;;;;;7.88;57.28;102276.27;109360;1254;72747;-53
2024/01/24 02:39:37;;;;;;;9.20;5.10;;;;;;;7.90;57.31;102274.38;109336;1253;58347;-52
2024/01/24 02:42:06;;;;;;;7.80;4.20;;;;;;;7.93;57.30;102273.58;109410;1253;59192;-51
2024/01/24 02:44:34;;;;;;;8.90;4.60;;;;;;;7.96;57.37;102272.09;109330;1253;73902;-51
2024/01/24 02:47:02;;;;;;;8.90;4.20;;;;;;;7.99;57.26;102269.39;109410;1254;71083;-53
2024/01/24 02:49:30;;;;;;;8.10;4.80;;;;;;;7.99;57.12;102266.94;109370;1254;72754;-51
2024/01/24 02:52:02;;;;;;;12.30;5.30;;;;;;;7.98;57.17;102273.03;109080;1254;58172;-52
2024/01/24 02:54:30;;;;;;;6.70;4.50;;;;;;;7.98;57.20;102270.58;109398;1254;59996;-52
2024/01/24 02:56:57;;;;;;;7.40;4.40;;;;;;;8.00;57.20;102270.98;109005;1253;72646;-52
2024/01/24 02:59:25;;;;;;;7.50;4.70;;;;;;;8.05;57.26;102268.48;109361;1254;71611;-52
2024/01/24 03:01:53;;;;;;;8.40;4.30;;;;;;;8.09;57.17;102260.90;109084;1253;72677;-52
2024/01/24 03:04:21;;;;;;;7.00;4.70;;;;;;;8.09;57.13;102263.36;109404;1254;58085;-52
2024/01/24 03:06:50;;;;;;;7.30;5.10;;;;;;;8.13;57.21;102265.91;109379;1253;60001;-52
2024/01/24 03:09:17;;;;;;;8.60;4.30;;;;;;;8.17;57.10;102264.62;109397;1253;74027;-52
2024/01/24 03:11:45;;;;;;;12.40;4.70;;;;;;;8.17;56.95;102266.37;109331;1253;72820;-52
2024/01/24 03:14:13;;;;;;;8.50;4.80;;;;;;;8.12;56.98;102269.04;109166;1254;70695;-52
2024/01/24 03:16:40;;;;;;;10.50;5.30;;;;;;;8.07;57.02;102263.66;109060;1254;58382;-52
2024/01/24 03:19:08;;;;;;;11.40;5.60;;;;;;;8.05;57.18;102266.05;109343;1254;59985;-52
2024/01/24 03:21:36;;;;;;;8.80;6.10;;;;;;;8.04;57.19;102263.92;109156;1254;72575;-52
2024/01/24 03:24:03;;;;;;;8.00;4.90;;;;;;;8.05;57.21;102267.27;109221;1253;71549;-52
2024/01/24 03:26:31;;;;;;;10.30;5.30;;;;;;;8.04;57.12;102271.95;109383;1254;72876;-52
2024/01/24 03:28:58;;;;;;;7.50;4.60;;;;;;;7.99;57.25;102268.48;109338;1254;59769;-52
2024/01/24 03:31:26;;;;;;;7.00;4.60;;;;;;;7.95;57.28;102273.64;109335;1253;58566;-51
2024/01/24 03:33:54;;;;;;;7.90;5.00;;;;;;;7.91;57.39;102270.22;109410;1254;72670;-52
2024/01/24 03:36:21;;;;;;;5.70;4.60;;;;;;;7.91;57.49;102271.62;109137;1253;71184;-52
2024/01/24 03:38:49;;;;;;;9.60;5.40;;;;;;;7.87;57.42;102271.14;109118;1253;72689;-52
2024/01/24 03:41:17;;;;;;;8.80;5.20;;;;;;;7.81;57.57;102272.02;109281;1253;58272;-53
2024/01/24 03:43:44;;;;;;;9.00;4.60;;;;;;;7.79;57.79;102258.18;109003;1259;60192;-53
2024/01/24 03:46:12;;;;;;;6.60;4.30;;;;;;;7.82;57.89;102254.23;109020;1254;73931;-53
2024/01/24 03:48:40;;;;;;;8.20;4.70;;;;;;;7.87;57.94;102256.13;109298;1253;71633;-52
2024/01/24 03:51:11;;;;;;;10.30;4.90;;;;;;;7.97;57.92;102260.40;109241;1253;72752;-53
2024/01/24 03:53:39;;;;;;;9.50;4.80;;;;;;;8.02;57.79;102259.48;109268;1256;59684;-53
2024/01/24 03:56:06;;;;;;;9.60;4.60;;;;;;;8.02;57.72;102262.84;109278;1253;59151;-53
2024/01/24 03:58:35;;;;;;;8.60;5.00;;;;;;;8.03;57.62;102266.69;109075;1253;73945;-53
2024/01/24 04:01:03;;;;;;;11.10;5.30;;;;;;;8.02;57.62;102267.73;109240;1253;70864;-53
2024/01/24 04:03:32;;;;;;;8.30;4.30;;;;;;;7.98;57.64;102269.89;109269;1253;72017;-57
2024/01/24 04:05:59;;;;;;;8.90;4.50;;;;;;;7.94;57.64;102269.77;109055;1258;58261;-56
2024/01/24 04:08:27;;;;;;;8.90;4.80;;;;;;;7.90;57.83;102269.13;109255;1253;58834;-56
2024/01/24 04:10:55;;;;;;;5.60;4.40;;;;;;;7.90;57.84;102268.42;109401;1253;74364;-56
2024/01/24 04:13:24;;;;;;;6.60;3.60;;;;;;;7.92;57.82;102266.41;109034;1253;72871;-57
2024/01/24 04:15:51;;;;;;;6.10;4.10;;;;;;;7.96;57.67;102266.15;109220;1253;72757;-58
2024/01/24 04:18:19;;;;;;;7.30;4.10;;;;;;;7.98;57.68;102268.30;109203;1254;59351;-57
2024/01/24 04:20:47;;;;;;;6.80;4.10;;;;;;;8.03;57.74;102269.66;109199;1254;60100;-58
2024/01/24 04:23:14;;;;;;;5.90;4.20;;;;;;;8.08;57.59;102272.42;109042;1255;73036;-57
2024/01/24 04:25:42;;;;;;;6.50;3.80;;;;;;;8.13;57.45;102271.14;109210;1257;71659;-57
2024/01/24 04:28:09;;;;;;;6.70;4.00;;;;;;;8.14;57.43;102279.73;109125;1253;72719;-57
2024/01/24 04:30:37;;;;;;;5.20;4.20;;;;;;;8.13;57.43;102283.74;109198;1256;58702;-57
2024/01/24 04:33:07;;;;;;;6.60;3.60;;;;;;;8.12;57.45;102275.52;109184;1256;60090;-57
2024/01/24 04:35:35;;;;;;;11.00;4.90;;;;;;;8.12;57.48;102270.44;109256;1254;74065;-58
2024/01/24 04:38:02;;;;;;;8.60;4.40;;;;;;;8.12;57.50;102269.22;109249;1254;72848;-59
2024/01/24 04:40:31;;;;;;;6.80;3.90;;;;;;;8.14;57.45;102265.95;109249;1254;72866;-59
2024/01/24 04:42:58;;;;;;;5.50;3.80;;;;;;;8.15;57.40;102262.98;108958;1254;58180;-58
2024/01/24 04:45:27;;;;;;;6.60;3.50;;;;;;;8.18;57.38;102260.09;109250;1253;58851;-56
2024/01/24 04:47:55;;;;;;;5.70;3.30;;;;;;;8.22;57.17;102263.52;109276;1253;72986;-58
2024/01/24 04:50:22;;;;;;;4.90;3.20;;;;;;;8.26;57.08;102258.73;109273;1253;71663;-58
2024/01/24 04:52:50;;;;;;;8.30;3.90;;;;;;;8.29;57.02;102251.65;109265;1255;72734;-59
2024/01/24 04:55:18;;;;;;;5.00;2.90;;;;;;;8.31;56.96;102259.20;109245;1254;58158;-57
2024/01/24 04:57:45;;;;;;;10.40;3.20;;;;;;;8.31;56.95;102261.30;109224;1254;59214;-58
2024/01/24 05:00:13;;;;;;;4.90;2.90;;;;;;;8.32;56.78;102263.08;109262;1254;73900;-57
2024/01/24 05:02:41;;;;;;;4.40;2.80;;;;;;;8.31;56.89;102263.23;109076;1254;72812;-57
2024/01/24 05:05:10;;;;;;;6.10;3.00;;;;;;;8.32;56.85;102257.99;109243;1254;73233;-59
2024/01/24 05:07:38;;;;;;;6.30;3.80;;;;;;;8.31;56.86;102258.50;109206;1254;58245;-50
2024/01/24 05:10:06;;;;;;;6.10;3.00;;;;;;;8.29;56.84;102262.13;109273;1253;58840;-52
2024/01/24 05:12:34;;;;;;;5.90;3.50;;;;;;;8.29;56.84;102268.41;109288;1254;72661;-52
2024/01/24 05:15:02;;;;;;;12.20;3.30;;;;;;;8.27;56.73;102269.09;109339;1253;71605;-51
2024/01/24 05:17:29;;;;;;;5.40;2.70;;;;;;;8.27;56.73;102263.30;108981;1254;72778;-51
2024/01/24 05:19:57;;;;;;;6.00;3.00;;;;;;;8.28;56.79;102257.74;109263;1254;58347;-51
2024/01/24 05:22:25;;;;;;;5.40;2.40;;;;;;;8.30;56.64;102255.51;109310;1254;60418;-51
2024/01/24 05:24:52;;;;;;;6.40;2.30;;;;;;;8.29;56.52;102254.27;109070;1253;73905;-53
2024/01/24 05:27:20;;;;;;;5.90;2.40;;;;;;;8.30;56.52;102249.58;109222;1254;72862;-51
2024/01/24 05:29:48;;;;;;;4.40;2.60;;;;;;;8.29;56.42;102245.19;109239;1254;72771;-52
2024/01/24 05:32:15;;;;;;;6.90;3.60;;;;;;;8.28;56.50;102245.67;109071;1257;58787;-52
2024/01/24 05:34:43;;;;;;;4.00;3.00;;;;;;;8.31;56.70;102249.42;109192;1255;60117;-50
2024/01/24 05:37:11;;;;;;;6.40;3.70;;;;;;;8.33;56.79;102253.65;109263;1253;73931;-51
2024/01/24 05:39:38;;;;;;;6.70;3.70;;;;;;;8.36;56.86;102254.43;109229;1259;71660;-52
2024/01/24 05:42:07;;;;;;;5.50;3.70;;;;;;;8.42;56.93;102251.45;108973;1254;71510;-54
2024/01/24 05:44:35;;;;;;;6.90;3.80;;;;;;;8.47;56.83;102252.83;109319;1254;59326;-53
2024/01/24 05:47:04;;;;;;;8.40;4.00;;;;;;;8.50;56.78;102251.34;109157;1254;58846;-52
2024/01/24 05:49:36;;;;;;;7.10;3.80;;;;;;;8.52;56.75;102256.63;109294;1254;73873;-53
2024/01/24 05:52:04;;;;;;;7.50;4.60;;;;;;;8.51;56.70;102262.36;109070;1253;72906;-54
2024/01/24 05:54:32;;;;;;;7.70;4.00;;;;;;;8.52;56.85;102260.27;109273;1257;72226;-53
2024/01/24 05:57:00;;;;;;;6.00;3.60;;;;;;;8.53;56.76;102253.86;109285;1257;58350;-52
2024/01/24 05:59:28;;;;;;;6.50;4.00;;;;;;;8.54;56.71;102254.74;109177;1255;58839;-56
2024/01/24 06:01:55;;;;;;;5.80;4.00;;;;;;;8.52;56.68;102254.88;109315;1254;73898;-53
2024/01/24 06:04:23;;;;;;;7.60;4.30;;;;;;;8.47;56.77;102264.20;109317;1254;71822;-54
2024/01/24 06:06:54;;;;;;;6.30;4.10;;;;;;;8.41;56.86;102266.83;109070;1254;71415;-55
2024/01/24 06:09:22;;;;;;;7.90;4.40;;;;;;;8.33;56.93;102265.19;109254;1255;59383;-55
2024/01/24 06:11:50;;;;;;;9.20;4.40;;;;;;;8.24;57.13;102263.04;109307;1256;58838;-55
2024/01/24 06:14:18;;;;;;;9.20;4.80;;;;;;;8.22;57.47;102261.09;109267;1256;73960;-55
2024/01/24 06:16:45;;;;;;;7.50;4.20;;;;;;;8.27;57.44;102252.11;109316;1254;72923;-55
2024/01/24 06:19:14;;;;;;;7.90;4.50;;;;;;;8.30;57.77;102249.75;109357;1253;72728;-52
2024/01/24 06:21:41;;;;;;;7.50;4.40;;;;;;;8.35;59.55;102249.70;109060;1254;58181;-53
2024/01/24 06:24:09;;;;;;;5.70;4.00;;;;;;;8.38;59.99;102251.36;109278;1254;59274;-53
2024/01/24 06:26:38;;;;;;;7.60;4.20;;;;;;;8.39;59.94;102252.95;109229;1256;72642;-53
2024/01/24 06:29:06;;;;;;;9.40;4.80;;;;;;;8.36;59.55;102249.55;109268;1257;75029;-52
2024/01/24 06:31:34;;;;;;;6.90;4.40;;;;;;;8.32;59.53;102246.13;109262;1254;71429;-53
2024/01/24 06:34:02;;;;;;;6.60;3.70;;;;;;;8.31;59.43;102248.88;109347;1254;58186;-53
2024/01/24 06:36:30;;;;;;;8.50;3.90;;;;;;;8.30;59.38;102256.57;109304;1253;58799;-52
2024/01/24 06:38:57;;;;;;;7.30;3.90;;;;;;;8.30;59.20;102257.77;109360;1254;73953;-52
2024/01/24 06:41:25;;;;;;;9.00;5.00;;;;;;;8.26;59.04;102260.15;109410;1254;73301;-54
2024/01/24 06:43:52;;;;;;;7.90;3.80;;;;;;;8.26;58.92;102265.57;109389;1253;71460;-53
2024/01/24 06:46:20;;;;;;;9.70;4.10;;;;;;;8.24;58.86;102267.60;109358;1252;58152;-53
2024/01/24 06:48:49;;;;;;;9.10;4.10;;;;;;;8.17;58.89;102264.27;109394;1254;58800;-54
2024/01/24 06:51:17;;;;;;;5.00;3.30;;;;;;;8.11;59.10;102261.15;109423;1253;73900;-53
2024/01/24 06:53:45;;;;;;;6.50;4.50;;;;;;;8.11;59.21;102258.67;109401;1254;72717;-53
2024/01/24 06:56:13;;;;;;;7.70;4.30;;;;;;;8.14;59.18;102254.04;109422;1254;71796;-53
2024/01/24 06:58:40;;;;;;;6.50;3.50;;;;;;;8.15;59.21;102247.43;109128;1254;59346;-53
2024/01/24 07:01:09;;;;;;;6.60;3.50;;;;;;;8.14;59.14;102243.92;109171;1254;60104;-53
2024/01/24 07:03:37;;;;;;;7.90;4.10;;;;;;;8.16;59.09;102252.52;109484;1252;73931;-53
2024/01/24 07:06:05;;;;;;;7.30;3.40;;;;;;;8.13;59.09;102250.87;109214;1254;72008;-53
2024/01/24 07:08:34;;;;;;;4.50;3.40;;;;;;;8.06;59.22;102250.86;109359;1254;72491;-53
2024/01/24 07:11:05;;;;;;;;;;;;;;;8.02;59.34;102248.15;109432;1254;58706;-54
2024/01/24 07:13:34;;;;;;;5.90;2.80;;;;;;;7.99;59.38;102245.45;109381;1254;59846;-53
2024/01/24 07:16:04;;;;;;;5.40;3.00;;;;;;;7.98;59.41;102238.27;109128;1254;72739;-53
2024/01/24 07:18:31;;;;;;;8.70;5.80;;;;;;;8.03;59.24;102236.30;109367;1253;70602;-54
2024/01/24 07:21:00;;;;;;;4.40;3.10;;;;;;;8.08;58.96;102229.95;109115;1254;72742;-54
2024/01/24 07:23:27;;;;;;;10.80;3.00;;;;;;;8.12;58.85;102228.31;109410;1254;59355;-53
2024/01/24 07:25:55;;;;;;;6.50;2.90;;;;;;;8.18;58.76;102224.25;109361;1253;60507;-53
2024/01/24 07:28:23;;;;;;;4.40;2.10;;;;;;;8.20;58.46;102221.86;109327;1253;72378;-54
2024/01/24 07:30:50;;;;;;;5.50;2.70;;;;;;;8.21;58.44;102231.35;109320;1257;72861;-53
2024/01/24 07:33:18;;;;;;;3.20;2.10;;;;;;;8.21;58.37;102237.29;109313;1254;72745;-53
2024/01/24 07:35:49;;;;;;;4.10;2.40;;;;;;;8.21;58.25;102233.41;109327;1253;58203;-52
2024/01/24 07:38:18;;;;;;;3.80;2.40;;;;;;;8.21;58.12;102234.33;109360;1254;60106;-53
2024/01/24 07:40:46;;;;;;;4.80;2.10;;;;;;;8.20;58.10;102232.35;109041;1254;72677;-53
2024/01/24 07:43:14;;;;;;;4.70;2.10;;;;;;;8.18;58.03;102232.14;109395;1253;71708;-53
2024/01/24 07:45:44;;;;;;;3.50;2.10;;;;;;;8.18;58.05;102233.52;109027;1252;72718;-53
2024/01/24 07:48:14;;;;;;;4.20;2.10;;;;;;;8.15;58.07;102230.84;109142;1253;58192;-54
2024/01/24 07:50:43;;;;;;;9.10;2.80;;;;;;;8.15;58.11;102228.38;109433;1254;60462;-54
2024/01/24 07:53:11;;;;;;;4.70;2.20;;;;;;;8.13;58.20;102229.19;109487;1253;74574;-53
2024/01/24 07:55:39;;;;;;;3.60;2.30;;;;;;;8.11;58.16;102240.18;109389;1252;70760;-53
2024/01/24 07:58:23;;;;;;;5.20;2.40;;;;;;;8.10;57.76;102242.23;109413;1253;71322;-53
2024/01/24 08:00:51;;;;;;;4.00;2.00;;;;;;;8.07;57.71;102244.97;109354;1253;58368;-52
2024/01/24 08:03:19;;;;;;;3.20;1.60;;;;;;;8.06;57.87;102242.65;109433;1253;58821;-53
2024/01/24 08:05:47;;;;;;;2.50;1.40;;;;;;;8.02;57.68;102238.89;109540;1254;73892;-53
2024/01/24 08:08:15;;;;;;;5.20;1.40;;;;;;;7.97;57.64;102233.16;109386;1254;72743;-51
2024/01/24 08:10:43;;;;;;;2.10;1.40;;;;;;;7.92;57.59;102227.97;109363;1254;71382;-53
2024/01/24 08:13:11;;;;;;;2.80;1.30;;;;;;;7.87;57.54;102230.79;109349;1253;58627;-51
2024/01/24 08:15:38;;;;;;;1.40;1.30;;;;;;;7.82;57.64;102232.73;109395;1254;59863;-52
2024/01/24 08:18:07;;;;;;;1.50;1.40;;;;;;;7.78;57.88;102231.24;109345;1253;73900;-51
2024/01/24 08:20:35;;;;;;;2.10;1.30;;;;;;;7.73;57.87;102229.71;109335;1254;70623;-51
2024/01/24 08:23:04;;;;;;;3.50;1.40;;;;;;;7.69;57.95;102229.77;109260;1254;72814;-51
2024/01/24 08:25:32;;;;;;;2.60;1.80;;;;;;;7.64;58.23;102234.71;109298;1254;58336;-50
2024/01/24 08:28:00;;;;;;;5.90;2.70;;;;;;;7.64;58.58;102236.96;109322;1252;58780;-50
2024/01/24 08:30:28;;;;;;;8.60;5.20;;;;;;;7.65;58.65;102238.22;109306;1253;72559;-52
2024/01/24 08:32:55;;;;;;;3.50;2.90;;;;;;;7.64;58.87;102235.05;108999;1254;72952;-52
2024/01/24 08:35:23;;;;;;;2.60;2.00;;;;;;;7.64;58.96;102229.30;109030;1254;72799;-52
2024/01/24 08:37:51;;;;;;;2.30;1.80;;;;;;;7.63;58.97;102226.30;109357;1253;58365;-51
2024/01/24 08:40:21;;;;;;;2.00;1.40;;;;;;;7.61;58.99;102223.09;109209;1254;58531;-51
2024/01/24 08:42:48;;;;;;;2.50;1.20;;;;;;;7.58;58.97;102225.29;109071;1253;73919;-50
2024/01/24 08:45:16;;;;;;;1.70;1.20;;;;;;;7.55;59.02;102229.58;109095;1254;74828;-52
2024/01/24 08:47:46;;;;;;;0.90;0.80;;;;;;;7.53;59.10;102231.77;109290;1253;71163;-50
2024/01/24 08:50:15;;;;;;;1.80;0.90;;;;;;;7.51;59.13;102230.84;109126;1252;58291;-51
2024/01/24 08:52:43;;;;;;;1.30;0.90;;;;;;;7.48;59.19;102236.70;109365;1253;58857;-52
2024/01/24 08:55:13;;;;;;;1.10;1.00;;;;;;;7.46;59.30;102248.70;109341;1252;73752;-53
2024/01/24 08:57:43;;;;;;;1.10;1.00;;;;;;;7.44;59.55;102250.21;109348;1252;71948;-51
2024/01/24 09:00:12;;;;;;;1.60;1.00;;;;;;;7.45;59.58;102243.41;109113;1253;72608;-53
2024/01/24 09:02:40;;;;;;;1.60;1.50;;;;;;;7.43;59.65;102228.34;109268;1252;59535;-53
2024/01/24 09:05:08;;;;;;;0.70;0.70;;;;;;;7.41;59.50;102217.83;109300;1253;60088;-53
2024/01/24 09:07:36;;;;;;;1.00;0.90;;;;;;;7.44;59.56;102208.81;109317;1254;73626;-53
2024/01/24 09:10:08;;;;;;;1.50;0.90;;;;;;;7.49;59.72;102201.48;109337;1252;72637;-51
2024/01/24 09:12:37;;;;;;;2.80;1.10;;;;;;;7.48;59.80;102196.20;109000;1254;73035;-56
2024/01/24 09:15:08;;;;;;;3.20;1.20;;;;;;;7.47;60.03;102193.38;109297;1252;58608;-56
2024/01/24 09:17:36;;;;;;;1.80;1.30;;;;;;;7.47;60.03;102190.74;109414;1252;60083;-57
2024/01/24 09:20:06;;;;;;;2.00;0.80;;;;;;;7.45;60.05;102183.89;109239;1254;71950;-58
2024/01/24 09:22:34;;;;;;;2.50;1.10;;;;;;;7.44;60.01;102184.39;109452;1253;71414;-56
2024/01/24 09:25:02;;;;;;;1.50;1.20;;;;;;;7.46;60.07;102184.44;109318;1254;71961;-56
2024/01/24 09:27:35;;;;;;;1.20;0.80;;;;;;;7.49;60.06;102173.54;109068;1253;59507;-57
2024/01/24 09:30:03;;;;;;;1.20;1.00;;;;;;;7.53;59.98;102166.46;109387;1253;59013;-50
2024/01/24 09:32:31;;;;;;;1.90;1.40;;;;;;;7.59;60.04;102167.15;109349;1253;72228;-51
2024/01/24 09:34:58;;;;;;;1.30;1.20;;;;;;;7.67;60.02;102163.01;109361;1253;73790;-50
2024/01/24 09:37:27;;;;;;;3.00;1.30;;;;;;;7.71;59.99;102155.44;109218;1254;72503;-53
2024/01/24 09:39:55;;;;;;;2.90;1.10;;;;;;;7.72;59.91;102157.90;109363;1253;58193;-52
2024/01/24 09:42:26;;;;;;;2.10;1.50;;;;;;;7.72;59.94;102153.54;109295;1253;58324;-52
2024/01/24 09:44:57;;;;;;;2.00;1.30;;;;;;;7.73;60.07;102151.82;109393;1253;73955;-56
2024/01/24 09:47:25;;;;;;;2.90;1.50;;;;;;;7.74;60.39;102149.05;109036;1253;74956;-57
2024/01/24 09:49:52;;;;;;;1.80;1.10;;;;;;;7.81;60.51;102151.68;109204;1254;74526;-58
2024/01/24 09:52:24;;;;;;;5.70;1.80;;;;;;;7.89;60.51;102149.45;109341;1253;58691;-57
2024/01/24 09:54:53;;;;;;;;;;;;;;;7.98;60.66;102143.73;109352;1252;60275;-58
2024/01/24 09:57:22;;;;;;;4.80;1.20;;;;;;;8.05;60.54;102131.30;109354;1253;73925;-57
2024/01/24 09:59:50;;;;;;;2.30;1.50;;;;;;;8.10;60.41;102119.73;109017;1254;71169;-56
2024/01/24 10:02:18;;;;;;;4.50;1.50;;;;;;;8.15;60.28;102115.48;109294;1253;73230;-57
2024/01/24 10:04:46;;;;;;;2.00;1.30;;;;;;;8.21;60.03;102104.06;109331;1253;59281;-57
2024/01/24 10:07:14;;;;;;;3.80;1.50;;;;;;;8.28;60.12;102099.52;108929;1252;59565;-56
2024/01/24 10:09:42;;;;;;;2.30;1.30;;;;;;;8.37;60.26;102093.42;109410;1253;73906;-56
2024/01/24 10:12:10;;;;;;;3.90;1.20;;;;;;;8.48;60.13;102086.17;109360;1252;71411;-56
2024/01/24 10:26:14;;;;;;;2.90;1.00;;;;;;;9.13;58.70;102061.45;102793;1285;612819;-65
2024/01/24 10:28:43;;;;;;;1.30;0.90;;;;;;;9.28;58.02;102052.63;104889;1265;145881;-63
2024/01/24 10:31:12;;;;;;;1.10;0.80;;;;;;;9.28;57.77;102053.52;104799;1259;59696;-63
2024/01/24 10:33:40;;;;;;;3.00;1.50;;;;;;;9.28;57.69;102051.93;104748;1261;74682;-64
2024/01/24 10:36:09;;;;;;;2.30;0.70;;;;;;;9.27;57.62;102054.18;105055;1259;73558;-63
2024/01/24 10:38:54;;;;;;;2.40;1.10;;;;;;;9.25;57.60;102052.05;104687;1260;71270;-62
2024/01/24 10:41:22;;;;;;;3.70;1.60;;;;;;;9.22;57.62;102044.48;104892;1260;59974;-65
2024/01/24 10:43:50;;;;;;;5.40;1.50;;;;;;;9.20;57.69;102035.52;104868;1259;61013;-58
2024/01/24 10:46:18;;;;;;;4.50;2.30;;;;;;;9.20;57.70;102031.13;104861;1259;72864;-59
2024/01/24 10:48:46;;;;;;;2.50;1.30;;;;;;;9.22;57.59;102023.80;105030;1259;72728;-54
2024/01/24 10:51:18;;;;;;;1.90;1.40;;;;;;;9.24;57.50;102024.55;104896;1259;73263;-64
2024/01/24 10:53:46;;;;;;;2.60;1.20;;;;;;;9.27;57.57;102018.46;104829;1265;60285;-60
2024/01/24 10:56:15;;;;;;;5.30;1.40;;;;;;;9.30;57.48;102012.92;104376;1271;60438;-63
2024/01/24 10:58:43;;;;;;;3.90;1.60;;;;;;;9.34;57.40;102008.61;105050;1259;74069;-64
2024/01/24 11:01:10;;;;;;;3.80;1.70;;;;;;;9.38;57.22;102005.53;104646;1268;73589;-62
2024/01/24 11:03:38;;;;;;;2.40;1.60;;;;;;;9.43;57.12;101998.78;105111;1264;71698;-63
2024/01/24 11:06:11;;;;;;;3.30;1.30;;;;;;;9.48;57.05;101991.52;104854;1260;60477;-62
2024/01/24 11:09:23;;;;;;;3.10;1.00;;;;;;;9.54;56.92;101986.52;104699;1260;59741;-63
2024/01/24 11:11:53;;;;;;;2.40;1.10;;;;;;;9.60;56.87;101984.17;104421;1268;71861;-63
2024/01/24 11:14:34;;;;;;;1.10;0.90;;;;;;;9.66;56.77;101978.84;104634;1271;71885;-63
2024/01/24 11:17:03;;;;;;;6.50;1.00;;;;;;;9.72;56.70;101975.43;104493;1263;73361;-64
2024/01/24 11:19:31;;;;;;;4.40;1.10;;;;;;;9.81;56.62;101970.99;104505;1264;62523;-60
2024/01/24 11:22:03;;;;;;;2.00;0.90;;;;;;;9.92;56.52;101970.29;104500;1260;61034;-63
2024/01/24 11:24:44;;;;;;;3.30;0.80;;;;;;;10.04;56.41;101964.15;104510;1260;74064;-63
2024/01/24 11:27:33;;;;;;;3.20;0.70;;;;;;;10.18;56.08;101958.36;104541;1261;72781;-62
2024/01/24 11:30:12;;;;;;;1.50;0.70;;;;;;;10.32;55.78;101959.27;104638;1265;72010;-61
2024/01/24 11:32:47;;;;;;;3.20;1.00;;;;;;;10.46;55.46;101953.48;104281;1267;59948;-60
2024/01/24 11:35:34;;;;;;;1.00;0.60;;;;;;;10.59;54.99;101956.27;104669;1260;61434;-64
2024/01/24 11:38:20;;;;;;;2.30;0.90;;;;;;;10.75;54.61;101953.65;104581;1260;72933;-61
2024/01/24 11:41:00;;;;;;;1.90;0.90;;;;;;;10.90;54.09;101938.88;104366;1262;73084;-63
2024/01/24 11:43:32;;;;;;;1.90;0.60;;;;;;;11.04;53.69;101932.52;104662;1265;72590;-64